Terminal Aerodrome Forecast
Issued by NWS

Home | Current Version | Previous Version | Text Only | Print | Product List | Glossary On
Versions: 1 2 3 4 5 6 7 8 9 10 11 12 13
455
FTUS45 KVEF 261729
TAFBIH
TAF
KBIH 261729Z 2618/2718 VRB05KT P6SM SKC
     FM262000 16012G20KT P6SM SCT120
     FM270300 15011KT P6SM SCT120
     FM270700 33005KT P6SM SKC=

USA.gov is the U.S. government's official web portal to all federal, state and local government web resources and services.